Time;durP1;ratioP1;P1;durP2;ratioP2;P2;SDS_P1;SDS_P2;PMS_P1;PMS_P2;Temp;Humidity;BMP_temperature;BMP_pressure;BME280_temperature;BME280_humidity;BME280_pressure;Samples;Min_cycle;Max_cycle;Signal;HPM_P1;HPM_P2
2023/05/21 00:02:18;;;;;;;6.70;2.17;;;;;;;17.68;100.00;100088.53;5036363;28;20214;-74
2023/05/21 00:04:45;;;;;;;6.07;1.60;;;;;;;17.75;100.00;100109.41;5071536;28;20281;-75
2023/05/21 00:07:14;;;;;;;7.75;1.90;;;;;;;17.74;100.00;100109.41;5035325;28;20206;-75
2023/05/21 00:09:40;;;;;;;7.82;2.00;;;;;;;17.65;100.00;100109.56;5071396;28;20247;-75
2023/05/21 00:12:09;;;;;;;7.03;1.85;;;;;;;17.58;100.00;100103.53;5070841;28;20230;-75
2023/05/21 00:14:36;;;;;;;7.20;1.88;;;;;;;17.53;100.00;100093.94;5070823;28;20240;-74
2023/05/21 00:17:02;;;;;;;8.10;1.90;;;;;;;17.39;100.00;100096.75;5069881;28;20206;-75
2023/05/21 00:19:31;;;;;;;9.70;2.25;;;;;;;17.39;100.00;100090.63;5059360;28;20659;-73
2023/05/21 00:22:01;;;;;;;7.35;1.98;;;;;;;17.29;100.00;100096.00;5064860;28;20965;-75
2023/05/21 00:24:29;;;;;;;8.05;2.00;;;;;;;17.28;100.00;100078.53;5070665;28;20198;-74
2023/05/21 00:26:56;;;;;;;7.00;1.80;;;;;;;17.20;100.00;100082.13;5070261;28;20207;-74
2023/05/21 00:29:25;;;;;;;7.38;1.92;;;;;;;17.09;100.00;100055.16;5035852;28;20203;-74
2023/05/21 00:31:52;;;;;;;8.68;2.17;;;;;;;17.30;100.00;100095.09;5070835;28;20690;-74
2023/05/21 00:34:19;;;;;;;7.57;1.92;;;;;;;17.42;100.00;100090.59;5071275;28;20210;-74
2023/05/21 00:36:45;;;;;;;6.65;2.15;;;;;;;17.29;100.00;100088.13;5070773;28;20206;-73
2023/05/21 00:39:13;;;;;;;9.75;2.40;;;;;;;17.27;100.00;100068.06;5070886;28;20329;-74
2023/05/21 00:41:41;;;;;;;8.40;2.03;;;;;;;17.53;100.00;100083.47;5070680;28;20238;-74
2023/05/21 00:44:09;;;;;;;9.95;2.22;;;;;;;16.95;100.00;99989.84;5070380;28;20203;-74
2023/05/21 00:46:36;;;;;;;6.95;1.75;;;;;;;17.32;100.00;100072.38;5070388;28;20191;-74
2023/05/21 00:49:03;;;;;;;7.22;1.92;;;;;;;17.28;100.00;100062.81;5070860;28;20206;-74
2023/05/21 00:51:30;;;;;;;7.82;1.90;;;;;;;17.43;100.00;100068.75;5070582;28;20215;-74
2023/05/21 00:53:57;;;;;;;8.15;2.15;;;;;;;17.20;100.00;100035.81;5070589;28;20195;-74
2023/05/21 00:56:25;;;;;;;7.68;1.83;;;;;;;17.37;100.00;100058.34;5051470;28;20198;-74
2023/05/21 00:58:54;;;;;;;7.05;1.83;;;;;;;17.22;100.00;100052.41;5070598;28;20206;-74
2023/05/21 01:01:24;;;;;;;8.48;2.00;;;;;;;17.31;100.00;100059.28;5051888;28;20202;-74
2023/05/21 01:03:51;;;;;;;7.00;1.80;;;;;;;17.25;100.00;100057.59;5070866;28;20663;-74
2023/05/21 01:06:19;;;;;;;7.97;2.00;;;;;;;17.31;100.00;100060.16;5070236;28;20203;-74
2023/05/21 01:08:46;;;;;;;8.13;2.40;;;;;;;17.28;100.00;100051.47;5070235;28;20293;-74
2023/05/21 01:11:14;;;;;;;9.20;2.45;;;;;;;17.23;100.00;100054.13;5034332;28;20250;-74
2023/05/21 01:13:42;;;;;;;6.28;1.75;;;;;;;17.20;100.00;100058.53;5070021;28;20317;-74
2023/05/21 01:16:13;;;;;;;7.97;1.95;;;;;;;16.94;100.00;100045.78;5069837;28;20209;-74
2023/05/21 01:18:42;;;;;;;10.07;2.25;;;;;;;16.75;100.00;100029.38;5051491;28;20202;-74
2023/05/21 01:21:09;;;;;;;9.45;2.22;;;;;;;16.62;100.00;100008.59;5070389;28;20214;-74
2023/05/21 01:23:37;;;;;;;9.20;2.13;;;;;;;16.80;100.00;100027.56;5035334;28;20203;-74
2023/05/21 01:26:06;;;;;;;8.57;2.08;;;;;;;16.62;100.00;100016.44;5070177;28;20194;-74
2023/05/21 01:28:33;;;;;;;6.22;1.67;;;;;;;16.68;100.00;100005.91;5070475;28;20207;-74
2023/05/21 01:31:04;;;;;;;7.32;1.85;;;;;;;16.79;100.00;100031.09;5070576;28;20224;-74
2023/05/21 01:33:38;;;;;;;8.35;2.00;;;;;;;16.71;100.00;100029.44;5070213;28;20199;-73
2023/05/21 01:36:12;;;;;;;8.30;1.90;;;;;;;16.70;100.00;100035.53;5070036;28;20207;-73
2023/05/21 01:38:43;;;;;;;6.60;1.70;;;;;;;16.72;100.00;100029.41;5070465;28;20198;-73
2023/05/21 01:41:12;;;;;;;7.53;1.80;;;;;;;16.55;100.00;100022.59;5070365;28;20203;-74
2023/05/21 01:43:42;;;;;;;6.97;1.75;;;;;;;16.58;100.00;100009.50;5070298;28;20658;-74
2023/05/21 01:46:12;;;;;;;7.65;2.03;;;;;;;16.63;100.00;100024.25;5069778;28;20313;-73
2023/05/21 01:48:40;;;;;;;6.50;1.88;;;;;;;16.65;100.00;100027.75;5070069;28;20199;-73
2023/05/21 01:51:07;;;;;;;8.07;2.83;;;;;;;16.48;100.00;100028.78;5068749;28;20226;-74
2023/05/21 01:53:33;;;;;;;6.03;1.75;;;;;;;16.44;100.00;100009.63;5069439;28;20660;-74
2023/05/21 01:56:02;;;;;;;6.72;1.70;;;;;;;16.41;100.00;100029.72;5054018;28;20199;-74
2023/05/21 01:58:29;;;;;;;5.35;1.70;;;;;;;16.45;100.00;100026.16;5069861;28;20230;-74
2023/05/21 02:00:56;;;;;;;6.53;1.73;;;;;;;16.15;100.00;100002.03;5069981;28;20195;-74
2023/05/21 02:03:25;;;;;;;7.30;1.98;;;;;;;16.43;100.00;100020.09;5070111;28;20214;-74
2023/05/21 02:05:54;;;;;;;6.78;2.03;;;;;;;16.34;100.00;100027.13;5034606;28;20203;-74
2023/05/21 02:08:22;;;;;;;6.97;2.03;;;;;;;16.26;100.00;100021.13;5069932;28;20242;-74
2023/05/21 02:10:48;;;;;;;6.45;1.83;;;;;;;16.23;100.00;100015.06;5035034;28;20213;-75
2023/05/21 02:13:19;;;;;;;7.95;2.08;;;;;;;16.24;100.00;100020.25;5069193;28;20649;-74
2023/05/21 02:15:46;;;;;;;5.60;1.73;;;;;;;16.08;100.00;100023.03;5070100;28;20198;-74
2023/05/21 02:18:15;;;;;;;5.45;1.70;;;;;;;16.12;100.00;100015.16;5071811;28;20203;-74
2023/05/21 02:20:42;;;;;;;8.13;2.08;;;;;;;16.04;100.00;100016.09;5073947;28;20194;-74
2023/05/21 02:23:09;;;;;;;7.70;2.00;;;;;;;15.99;100.00;100018.72;5073076;28;20265;-74
2023/05/21 02:25:36;;;;;;;8.23;2.88;;;;;;;15.97;100.00;100023.13;5073051;28;20227;-74
2023/05/21 02:28:03;;;;;;;5.97;1.73;;;;;;;15.96;100.00;100023.09;5073417;28;20187;-74
2023/05/21 02:30:31;;;;;;;7.35;1.98;;;;;;;16.03;100.00;100033.50;5073408;28;20207;-74
2023/05/21 02:32:59;;;;;;;6.78;1.88;;;;;;;15.88;100.00;100024.03;5054353;28;20231;-74
2023/05/21 02:35:26;;;;;;;7.65;2.00;;;;;;;15.63;100.00;99983.25;5073375;28;20195;-74
2023/05/21 02:37:57;;;;;;;6.30;1.83;;;;;;;15.89;100.00;100022.28;5072854;28;20199;-74
2023/05/21 02:40:25;;;;;;;7.07;2.03;;;;;;;15.88;100.00;100025.78;5039581;28;20264;-74
2023/05/21 02:42:51;;;;;;;7.28;2.00;;;;;;;15.99;100.00;100021.34;5073083;28;20264;-74
2023/05/21 02:45:18;;;;;;;10.00;2.40;;;;;;;15.94;100.00;100023.13;5073034;28;20206;-74
2023/05/21 02:47:46;;;;;;;6.70;1.88;;;;;;;15.99;100.00;100023.97;5073048;28;20199;-74
2023/05/21 02:50:14;;;;;;;7.97;2.08;;;;;;;15.97;100.00;100023.13;5073207;28;20202;-74
2023/05/21 02:52:41;;;;;;;6.03;1.75;;;;;;;15.92;100.00;100014.41;5037477;28;20231;-74
2023/05/21 02:55:08;;;;;;;5.20;1.60;;;;;;;16.04;100.00;100014.34;5073030;28;20282;-74
2023/05/21 02:57:35;;;;;;;4.68;1.55;;;;;;;16.00;100.00;100024.81;5037702;28;20203;-74
2023/05/21 03:00:02;;;;;;;4.57;1.55;;;;;;;15.96;100.00;100020.50;5072958;28;20207;-74
2023/05/21 03:02:29;;;;;;;6.00;1.88;;;;;;;16.03;100.00;100024.81;5072948;28;20199;-74
2023/05/21 03:04:57;;;;;;;6.13;1.77;;;;;;;16.11;100.00;100026.47;5073011;28;20246;-74
2023/05/21 03:07:24;;;;;;;3.83;1.38;;;;;;;16.14;100.00;100034.31;5072390;28;20213;-75
2023/05/21 03:09:51;;;;;;;4.90;1.55;;;;;;;16.17;100.00;100028.16;5072884;28;20202;-75
2023/05/21 03:12:18;;;;;;;5.32;1.73;;;;;;;16.26;100.00;100034.22;5072599;28;20234;-75
2023/05/21 03:14:45;;;;;;;4.40;1.50;;;;;;;16.30;100.00;100033.28;5072840;28;20234;-74
2023/05/21 03:17:12;;;;;;;5.57;1.70;;;;;;;16.42;100.00;100036.66;5072622;28;20195;-74
2023/05/21 03:19:41;;;;;;;5.50;1.58;;;;;;;16.52;100.00;100019.97;5072736;28;20654;-74
2023/05/21 03:22:11;;;;;;;5.05;1.58;;;;;;;16.56;100.00;100035.69;5071757;28;20665;-75
2023/05/21 03:24:38;;;;;;;5.40;1.65;;;;;;;16.51;100.00;100029.63;5072333;28;20293;-74
2023/05/21 03:27:05;;;;;;;4.22;1.58;;;;;;;16.76;100.00;100048.59;5072352;28;20652;-75
2023/05/21 03:29:32;;;;;;;7.93;2.00;;;;;;;16.81;100.00;100045.03;5036763;28;20210;-74
2023/05/21 03:32:00;;;;;;;6.03;1.75;;;;;;;16.84;100.00;100050.22;5072145;28;20226;-75
2023/05/21 03:34:27;;;;;;;6.45;1.95;;;;;;;16.99;100.00;100050.94;5072400;28;20203;-74
2023/05/21 03:36:54;;;;;;;4.60;1.60;;;;;;;16.97;100.00;100053.59;5071891;28;20673;-74
2023/05/21 03:39:22;;;;;;;5.85;1.75;;;;;;;17.07;100.00;100049.09;5071415;28;20199;-74
2023/05/21 03:41:49;;;;;;;6.22;1.75;;;;;;;17.01;100.00;100036.09;5071651;28;20210;-74
2023/05/21 03:44:16;;;;;;;7.03;1.98;;;;;;;17.29;100.00;100064.56;5072497;28;20603;-74
2023/05/21 03:46:44;;;;;;;7.47;2.13;;;;;;;17.30;100.00;100061.03;5072113;28;20202;-74
2023/05/21 03:49:11;;;;;;;5.38;1.75;;;;;;;17.18;100.00;100050.72;5072198;28;20268;-74
2023/05/21 03:51:38;;;;;;;4.68;1.50;;;;;;;17.30;100.00;100066.25;5036627;28;20229;-74
2023/05/21 03:54:05;;;;;;;5.55;1.75;;;;;;;17.44;100.00;100067.88;5071388;28;20218;-75
2023/05/21 03:56:33;;;;;;;6.60;1.83;;;;;;;17.41;100.00;100036.44;5071801;28;20279;-75
2023/05/21 03:59:00;;;;;;;7.63;1.95;;;;;;;17.59;100.00;100083.41;5071338;28;20696;-74
2023/05/21 04:01:27;;;;;;;7.65;1.90;;;;;;;17.69;100.00;100075.38;5071744;28;20195;-74
2023/05/21 04:03:54;;;;;;;7.18;1.90;;;;;;;17.82;100.00;100073.47;5071737;28;20278;-74
2023/05/21 04:06:21;;;;;;;6.60;1.83;;;;;;;17.89;100.00;100077.75;5071004;28;20253;-75
2023/05/21 04:08:48;;;;;;;8.15;2.08;;;;;;;17.99;100.00;100073.22;5070974;28;20195;-74
2023/05/21 04:11:15;;;;;;;3.35;1.23;;;;;;;18.12;100.00;100070.38;5035921;28;20194;-75
2023/05/21 04:13:43;;;;;;;7.85;1.95;;;;;;;18.36;100.00;100068.25;5035769;28;20235;-74
2023/05/21 04:16:13;;;;;;;8.52;2.42;;;;;;;18.41;100.00;100062.00;5070128;28;20194;-74
2023/05/21 04:18:40;;;;;;;6.63;1.95;;;;;;;18.54;100.00;100063.59;5066876;28;20191;-74
2023/05/21 04:21:07;;;;;;;7.65;2.38;;;;;;;18.72;100.00;100051.88;5071411;28;20229;-81
2023/05/21 04:23:35;;;;;;;4.55;1.52;;;;;;;18.65;100.00;100009.13;5071245;28;20203;-68
2023/05/21 04:26:03;;;;;;;3.63;1.30;;;;;;;19.09;100.00;100067.78;5070118;28;20191;-76
2023/05/21 04:28:30;;;;;;;6.53;1.73;;;;;;;19.24;100.00;100075.38;5036091;28;20217;-74
2023/05/21 04:30:58;;;;;;;6.07;1.77;;;;;;;19.49;100.00;100078.41;5070106;28;20207;-75
2023/05/21 04:33:25;;;;;;;6.00;1.75;;;;;;;19.67;100.00;100083.25;5070603;28;20681;-74
2023/05/21 04:35:52;;;;;;;5.93;1.83;;;;;;;19.70;100.00;100041.97;5070834;28;20203;-75
2023/05/21 04:38:19;;;;;;;8.32;2.08;;;;;;;20.14;100.00;100085.69;5070500;28;20286;-74
2023/05/21 04:40:47;;;;;;;5.88;1.67;;;;;;;20.30;100.00;100090.63;5069884;28;20572;-74
2023/05/21 04:43:15;;;;;;;8.02;2.13;;;;;;;20.50;100.00;100086.59;5070330;28;20239;-74
2023/05/21 04:45:43;;;;;;;8.55;2.38;;;;;;;21.17;100.00;100093.59;5011149;28;20202;-74
2023/05/21 04:48:14;;;;;;;7.78;1.95;;;;;;;21.80;100.00;100092.59;5069833;28;20241;-74
2023/05/21 04:50:41;;;;;;;7.75;1.92;;;;;;;21.87;98.63;100099.41;5067631;28;20278;-74
2023/05/21 04:53:07;;;;;;;9.15;2.30;;;;;;;21.96;96.60;100085.97;5069955;28;20226;-74
2023/05/21 04:55:38;;;;;;;7.03;1.88;;;;;;;21.87;97.13;100086.22;5070653;28;20195;-74
2023/05/21 04:58:05;;;;;;;6.93;1.77;;;;;;;22.18;98.36;100091.44;5067868;28;20198;-74
2023/05/21 05:00:32;;;;;;;5.10;1.50;;;;;;;22.50;100.00;100093.03;5070191;28;20205;-74
2023/05/21 05:02:59;;;;;;;7.55;2.13;;;;;;;22.60;95.21;100089.16;5070014;28;20645;-72
2023/05/21 05:05:27;;;;;;;9.25;2.17;;;;;;;22.80;100.00;100094.66;5070732;28;20555;-69
2023/05/21 05:07:54;;;;;;;7.07;1.88;;;;;;;22.90;89.44;100093.41;5069691;28;20207;-69
2023/05/21 05:10:21;;;;;;;6.60;1.85;;;;;;;23.77;89.96;100090.22;5034894;28;20555;-67
2023/05/21 05:12:48;;;;;;;7.13;2.03;;;;;;;24.32;83.83;100071.25;5070096;28;20221;-69
2023/05/21 05:15:15;;;;;;;5.88;1.73;;;;;;;25.06;76.20;100080.44;5069841;28;20589;-69
2023/05/21 05:17:42;;;;;;;8.60;2.03;;;;;;;25.91;69.83;100089.81;5070382;28;20283;-68
2023/05/21 05:20:10;;;;;;;7.82;1.92;;;;;;;25.92;70.32;100100.38;5070311;28;20206;-69
2023/05/21 05:22:38;;;;;;;6.72;1.85;;;;;;;25.91;64.08;100098.66;5070073;28;20223;-69
2023/05/21 05:25:06;;;;;;;8.00;2.20;;;;;;;25.99;67.44;100077.03;5070121;28;20202;-67
2023/05/21 05:27:33;;;;;;;9.88;2.22;;;;;;;26.40;66.51;100075.88;5070337;28;20294;-67
2023/05/21 05:30:00;;;;;;;9.52;2.03;;;;;;;26.26;64.28;100082.81;5070265;28;20202;-72
2023/05/21 05:32:26;;;;;;;7.20;1.73;;;;;;;26.12;63.52;100092.31;5065212;28;20222;-68
2023/05/21 05:34:53;;;;;;;8.10;1.95;;;;;;;25.92;63.63;100096.84;5050300;28;20195;-70
2023/05/21 05:37:20;;;;;;;7.82;1.80;;;;;;;26.13;63.71;100088.72;5053512;28;20602;-69
2023/05/21 05:39:48;;;;;;;7.45;1.80;;;;;;;25.61;65.14;100073.53;5057544;28;20216;-69
2023/05/21 05:42:15;;;;;;;7.60;1.83;;;;;;;25.69;65.94;100091.75;5053381;28;20589;-69
2023/05/21 05:44:41;;;;;;;9.65;2.28;;;;;;;25.20;65.25;100090.44;5069451;28;20637;-75
2023/05/21 05:47:09;;;;;;;9.10;2.03;;;;;;;24.38;74.91;100097.50;5047348;28;20203;-70
2023/05/21 05:49:36;;;;;;;10.55;2.25;;;;;;;24.12;73.05;100093.22;5068642;28;20226;-69
2023/05/21 05:52:03;;;;;;;5.15;1.60;;;;;;;23.55;75.60;100090.19;5071795;28;20260;-69
2023/05/21 05:54:30;;;;;;;11.93;2.67;;;;;;;23.38;80.80;100089.91;5073741;28;20238;-71
2023/05/21 05:56:58;;;;;;;8.82;2.13;;;;;;;23.54;81.45;100077.88;5071819;28;21551;-72
2023/05/21 05:59:25;;;;;;;7.72;1.95;;;;;;;23.93;81.82;100094.03;5054945;28;20677;-72
2023/05/21 06:01:51;;;;;;;7.38;1.95;;;;;;;23.64;76.66;100097.78;5028483;28;20203;-73
2023/05/21 06:04:18;;;;;;;8.25;2.03;;;;;;;23.53;79.13;100076.16;5048113;28;20218;-73
2023/05/21 06:06:46;;;;;;;9.13;2.22;;;;;;;23.44;78.36;100072.06;5065472;28;20199;-74
2023/05/21 06:09:12;;;;;;;10.43;2.35;;;;;;;23.06;84.09;100073.44;5033568;28;20203;-73
2023/05/21 06:11:39;;;;;;;9.13;2.33;;;;;;;22.87;85.98;100082.94;5070686;28;20194;-73
2023/05/21 06:14:07;;;;;;;8.73;2.17;;;;;;;22.79;88.66;100085.00;5067478;28;20226;-72
2023/05/21 06:16:35;;;;;;;9.05;2.17;;;;;;;22.81;88.46;100084.94;5073197;28;20199;-71
2023/05/21 06:19:02;;;;;;;7.20;2.00;;;;;;;22.92;85.79;100088.94;5070784;28;20653;-72
2023/05/21 06:21:29;;;;;;;8.23;2.13;;;;;;;22.33;86.95;100069.78;5069462;28;20206;-72
2023/05/21 06:23:56;;;;;;;6.13;1.70;;;;;;;22.11;90.38;100074.94;5070839;28;20206;-72
2023/05/21 06:26:23;;;;;;;4.13;1.50;;;;;;;21.72;94.03;100068.25;5071669;28;20624;-73
2023/05/21 06:28:50;;;;;;;13.32;4.65;;;;;;;21.78;97.09;100075.97;5070361;28;20624;-72
2023/05/21 06:33:40;;;;;;;2.90;1.77;;;;;;;21.20;100.00;100060.97;5085574;27;20401;-73
2023/05/21 06:36:07;;;;;;;7.55;1.65;;;;;;;21.27;100.00;100081.88;5079117;28;20230;-73
2023/05/21 06:38:34;;;;;;;5.72;1.60;;;;;;;21.46;100.00;100073.41;5069033;28;20203;-73
2023/05/21 06:41:02;;;;;;;7.97;1.70;;;;;;;21.33;100.00;100072.94;5075618;28;20214;-73
2023/05/21 06:43:29;;;;;;;10.77;2.00;;;;;;;20.92;100.00;100068.78;5071073;28;20227;-66
2023/05/21 06:45:56;;;;;;;13.73;2.20;;;;;;;21.04;100.00;100064.94;5066983;28;20194;-73
2023/05/21 06:48:23;;;;;;;10.55;1.92;;;;;;;21.05;100.00;100059.59;5067246;28;20206;-73
2023/05/21 06:50:51;;;;;;;15.38;2.75;;;;;;;20.81;100.00;100067.31;5067158;28;20207;-73
2023/05/21 06:53:18;;;;;;;8.60;2.05;;;;;;;20.82;100.00;100063.78;5067068;28;20527;-73
2023/05/21 06:55:44;;;;;;;1.35;1.25;;;;;;;21.27;100.00;100067.81;5066991;28;20632;-72
2023/05/21 06:58:11;;;;;;;1.08;1.08;;;;;;;20.93;100.00;100052.06;5066806;28;20206;-72
2023/05/21 07:00:38;;;;;;;1.30;1.30;;;;;;;20.76;100.00;100054.28;5066515;28;20669;-73
2023/05/21 07:03:05;;;;;;;0.90;0.90;;;;;;;20.74;100.00;100062.22;5066102;28;20643;-73
2023/05/21 07:05:31;;;;;;;1.58;1.48;;;;;;;20.84;100.00;100048.78;5031679;28;20202;-73
2023/05/21 07:07:59;;;;;;;1.30;1.27;;;;;;;21.12;100.00;100055.91;5066432;28;20195;-73
2023/05/21 07:10:26;;;;;;;4.10;3.80;;;;;;;20.75;100.00;100060.47;5066799;28;20222;-72
2023/05/21 07:12:53;;;;;;;1.20;1.20;;;;;;;20.63;100.00;100037.06;5066575;28;20203;-72
2023/05/21 07:15:20;;;;;;;1.45;1.40;;;;;;;20.76;100.00;100055.13;5066824;28;20249;-73
2023/05/21 07:17:47;;;;;;;1.17;1.17;;;;;;;21.12;100.00;100050.66;5066051;28;20192;-75
2023/05/21 07:20:13;;;;;;;1.20;1.20;;;;;;;21.39;100.00;100041.09;5066339;28;20206;-72
2023/05/21 07:22:41;;;;;;;1.10;1.10;;;;;;;21.70;100.00;100046.28;5066785;28;20563;-72
2023/05/21 07:25:10;;;;;;;1.23;1.23;;;;;;;21.82;100.00;100022.16;5066971;28;20579;-72
2023/05/21 07:27:37;;;;;;;2.33;2.17;;;;;;;21.51;100.00;100018.75;5066504;28;20242;-72
2023/05/21 07:30:04;;;;;;;1.70;1.60;;;;;;;21.64;100.00;100038.56;5066033;28;20203;-72
2023/05/21 07:32:31;;;;;;;1.70;1.60;;;;;;;21.54;100.00;100042.41;5066144;28;20721;-72
2023/05/21 07:35:01;;;;;;;1.33;1.23;;;;;;;21.86;100.00;100028.22;5066055;28;20203;-72
2023/05/21 07:37:28;;;;;;;1.50;1.40;;;;;;;21.82;100.00;100038.00;5066035;28;20307;-72
2023/05/21 07:39:56;;;;;;;1.40;1.30;;;;;;;21.88;100.00;100035.16;5066404;28;20661;-72
2023/05/21 07:42:24;;;;;;;1.63;1.52;;;;;;;21.67;100.00;100026.13;5065833;28;20226;-72
2023/05/21 07:44:51;;;;;;;1.63;1.52;;;;;;;21.66;100.00;100044.66;5053593;28;20253;-72
2023/05/21 07:47:18;;;;;;;1.60;1.50;;;;;;;21.98;100.00;100033.97;5052589;28;20257;-72
2023/05/21 07:49:45;;;;;;;1.55;1.45;;;;;;;21.63;100.00;100021.00;5048931;28;20230;-72
2023/05/21 07:52:11;;;;;;;1.63;1.52;;;;;;;22.02;100.00;100038.25;5033628;28;20201;-72
2023/05/21 07:54:38;;;;;;;1.48;1.38;;;;;;;22.08;100.00;100018.72;5050538;28;20336;-72
2023/05/21 07:57:05;;;;;;;1.20;1.20;;;;;;;22.35;100.00;100019.56;5053277;28;20225;-71
2023/05/21 07:59:33;;;;;;;1.27;1.27;;;;;;;22.16;98.84;100016.66;5052930;28;20222;-72
2023/05/21 08:02:00;;;;;;;1.55;1.45;;;;;;;22.32;100.00;100032.88;5051952;28;20792;-71
2023/05/21 08:04:27;;;;;;;1.30;1.20;;;;;;;22.44;100.00;100038.59;5052436;28;20673;-72
2023/05/21 08:06:54;;;;;;;1.65;1.55;;;;;;;22.64;100.00;100033.50;5052392;28;20654;-72
2023/05/21 08:09:20;;;;;;;1.38;1.27;;;;;;;22.70;96.26;100025.38;5052289;28;20199;-72
2023/05/21 08:11:47;;;;;;;1.67;1.55;;;;;;;22.73;95.94;100037.63;5052054;28;20211;-72
2023/05/21 08:14:14;;;;;;;1.27;1.27;;;;;;;22.91;95.25;100039.63;5052076;28;20195;-72
2023/05/21 08:16:42;;;;;;;1.48;1.38;;;;;;;22.92;93.49;100033.41;5052098;28;20195;-72
2023/05/21 08:19:09;;;;;;;1.08;1.08;;;;;;;23.10;91.98;100022.16;5052102;28;20203;-72
2023/05/21 08:21:35;;;;;;;1.27;1.27;;;;;;;23.10;92.51;100016.88;5052025;28;20207;-72
2023/05/21 08:24:02;;;;;;;1.45;1.45;;;;;;;22.73;95.38;99984.75;5052052;28;20703;-73
2023/05/21 08:26:29;;;;;;;1.20;1.20;;;;;;;23.01;96.61;100033.06;5052005;28;20202;-74
2023/05/21 08:28:56;;;;;;;1.30;1.30;;;;;;;23.42;94.92;100036.00;5051725;28;20587;-73
2023/05/21 08:31:23;;;;;;;1.92;1.83;;;;;;;23.32;92.52;100035.47;5051520;28;20196;-74
2023/05/21 08:33:52;;;;;;;1.13;1.13;;;;;;;23.37;90.93;100029.97;5051904;28;20226;-73
2023/05/21 08:36:20;;;;;;;1.45;1.42;;;;;;;23.56;93.10;100031.03;5052036;28;20203;-73
2023/05/21 08:38:46;;;;;;;1.23;1.23;;;;;;;23.59;88.50;100030.91;5051709;28;20199;-73
2023/05/21 08:41:14;;;;;;;1.30;1.30;;;;;;;23.77;86.48;100034.63;5049030;28;20204;-73
2023/05/21 08:43:41;;;;;;;1.60;1.50;;;;;;;23.76;87.53;100031.09;5049800;28;20669;-74
2023/05/21 08:46:09;;;;;;;1.17;1.17;;;;;;;23.59;86.00;100018.53;5051850;28;20208;-72
2023/05/21 08:48:37;;;;;;;1.20;1.20;;;;;;;23.54;84.64;100032.88;5048867;28;20674;-73
2023/05/21 08:51:06;;;;;;;1.30;1.30;;;;;;;23.68;85.07;100036.72;5053279;28;20642;-73
2023/05/21 08:53:33;;;;;;;1.20;1.20;;;;;;;23.23;87.22;99954.63;5051012;28;20196;-73
2023/05/21 08:56:01;;;;;;;1.52;1.42;;;;;;;23.96;84.35;100033.84;5050705;28;20268;-73
2023/05/21 08:58:29;;;;;;;1.25;1.25;;;;;;;23.96;81.47;100031.19;5050546;28;20241;-72
2023/05/21 09:00:57;;;;;;;2.40;2.05;;;;;;;23.83;81.14;100040.53;5051635;28;20210;-73
2023/05/21 09:03:24;;;;;;;1.20;1.20;;;;;;;24.15;82.19;100032.16;5050734;28;20227;-68
2023/05/21 09:05:51;;;;;;;1.10;1.10;;;;;;;24.26;79.27;100017.66;5051471;28;20210;-68
2023/05/21 09:08:24;;;;;;;1.40;1.30;;;;;;;24.31;80.05;100032.41;5031999;28;20389;-69
2023/05/21 09:10:52;;;;;;;1.13;1.13;;;;;;;24.48;81.91;100037.00;5050853;28;20206;-69
2023/05/21 09:13:19;;;;;;;1.50;1.40;;;;;;;24.72;80.85;100035.97;5050224;28;20222;-73
2023/05/21 09:15:47;;;;;;;1.30;1.20;;;;;;;24.67;77.88;100037.94;5057838;28;20216;-71
2023/05/21 09:18:14;;;;;;;1.50;1.40;;;;;;;24.50;74.12;100024.56;5064520;28;20757;-69
2023/05/21 09:20:42;;;;;;;1.15;1.15;;;;;;;24.70;76.51;100024.53;5054420;28;20248;-68
2023/05/21 09:23:11;;;;;;;2.67;2.00;;;;;;;24.88;72.31;100018.47;5045258;28;20285;-69
2023/05/21 09:25:40;;;;;;;1.83;1.40;;;;;;;25.33;70.66;100033.25;5060571;28;20264;-68
2023/05/21 09:28:12;;;;;;;3.25;1.73;;;;;;;24.88;72.79;100031.72;5053069;28;20561;-67
2023/05/21 09:30:44;;;;;;;2.28;1.58;;;;;;;25.10;71.69;100032.50;5051012;28;20211;-67
2023/05/21 09:33:11;;;;;;;3.30;1.85;;;;;;;25.21;68.42;100026.69;5058486;28;20235;-69
2023/05/21 09:35:45;;;;;;;4.03;2.03;;;;;;;24.52;69.39;100036.81;5055038;28;20743;-68
2023/05/21 09:38:11;;;;;;;2.50;1.65;;;;;;;24.71;71.72;100020.97;5065255;28;20771;-68
2023/05/21 09:40:44;;;;;;;2.38;1.67;;;;;;;25.04;68.80;100029.25;5053524;28;20215;-68
2023/05/21 09:43:15;;;;;;;2.95;1.85;;;;;;;25.27;69.10;100025.53;5034567;28;20317;-69
2023/05/21 09:45:51;;;;;;;1.52;1.40;;;;;;;25.41;65.92;100034.59;5053080;28;20289;-69
2023/05/21 09:48:18;;;;;;;2.05;1.60;;;;;;;25.05;66.13;100026.50;5057369;28;20639;-69
2023/05/21 09:50:45;;;;;;;8.48;2.25;;;;;;;25.15;67.46;100022.50;5057336;28;20289;-67
2023/05/21 09:53:13;;;;;;;6.50;2.03;;;;;;;25.16;66.62;100018.94;5063198;28;20207;-68
2023/05/21 09:55:42;;;;;;;6.60;2.17;;;;;;;25.21;66.40;100028.47;5055862;28;20230;-68
2023/05/21 09:58:10;;;;;;;7.90;2.13;;;;;;;25.14;66.31;100020.81;5050030;28;20269;-68
2023/05/21 10:00:38;;;;;;;10.15;2.65;;;;;;;25.10;66.79;100024.53;5049498;28;20204;-67
2023/05/21 10:03:09;;;;;;;8.45;2.53;;;;;;;25.57;63.50;100017.06;5049597;28;20242;-72
2023/05/21 10:05:37;;;;;;;5.70;2.20;;;;;;;25.48;62.32;100024.53;5049820;28;20203;-73
2023/05/21 10:08:04;;;;;;;3.45;1.70;;;;;;;25.63;61.40;100021.19;5049578;28;20685;-71
2023/05/21 10:10:32;;;;;;;3.05;1.65;;;;;;;26.04;59.10;100017.38;5047025;28;20203;-67
2023/05/21 10:13:05;;;;;;;2.20;1.42;;;;;;;26.37;57.39;100019.31;5048121;28;20674;-71
2023/05/21 10:15:37;;;;;;;5.10;2.20;;;;;;;26.37;57.25;100022.00;5042423;28;20208;-71
2023/05/21 10:18:05;;;;;;;1.00;1.00;;;;;;;26.13;55.44;99995.69;5044324;28;20233;-70
2023/05/21 10:20:32;;;;;;;1.10;1.10;;;;;;;26.10;56.90;100010.94;5049030;28;20654;-70
2023/05/21 10:23:01;;;;;;;1.00;1.00;;;;;;;26.56;56.47;100007.69;5053490;28;20591;-70
2023/05/21 10:25:28;;;;;;;1.00;1.00;;;;;;;26.74;56.00;100011.19;5059756;28;20203;-71
2023/05/21 10:27:57;;;;;;;1.00;1.00;;;;;;;26.70;55.25;100003.44;5069402;28;20217;-72
2023/05/21 10:30:25;;;;;;;1.20;1.20;;;;;;;26.44;56.28;99996.81;5063370;28;20206;-72
2023/05/21 10:32:52;;;;;;;1.80;1.70;;;;;;;26.03;58.47;100007.72;5056141;28;20284;-71
2023/05/21 10:35:19;;;;;;;0.90;0.90;;;;;;;25.97;57.25;99928.28;5063722;28;20264;-72
2023/05/21 10:37:46;;;;;;;1.00;1.00;;;;;;;26.43;57.33;100001.25;5057029;28;20214;-71
2023/05/21 10:40:14;;;;;;;1.15;1.15;;;;;;;26.40;57.02;100001.41;5065925;28;20195;-71
2023/05/21 10:43:02;;;;;;;1.08;1.08;;;;;;;26.41;57.08;99994.31;5065543;28;20206;-71
2023/05/21 10:45:45;;;;;;;0.90;0.90;;;;;;;26.58;56.20;100002.28;5056190;28;20260;-72
2023/05/21 10:48:37;;;;;;;0.90;0.90;;;;;;;26.74;54.92;100000.56;5064392;28;20320;-72
2023/05/21 10:51:16;;;;;;;1.00;1.00;;;;;;;26.82;54.39;99987.75;4991389;28;20231;-71
2023/05/21 10:54:15;;;;;;;1.60;1.58;;;;;;;26.99;55.40;99995.69;5022002;28;20270;-71
2023/05/21 10:56:46;;;;;;;0.93;0.93;;;;;;;26.29;54.38;99993.13;4949165;29;20203;-71
2023/05/21 10:59:20;;;;;;;0.80;0.80;;;;;;;26.13;55.12;99997.47;4945673;29;20211;-71
2023/05/21 11:01:51;;;;;;;1.02;1.02;;;;;;;26.25;54.74;99969.47;4935030;29;20265;-71
2023/05/21 11:04:22;;;;;;;1.52;1.52;;;;;;;26.16;54.18;99986.69;4941386;29;20319;-71
2023/05/21 11:06:49;;;;;;;1.00;1.00;;;;;;;26.24;54.07;99981.03;4948637;29;20210;-71
2023/05/21 11:09:16;;;;;;;0.90;0.90;;;;;;;26.68;55.07;99990.25;4939572;29;20235;-71
2023/05/21 11:11:44;;;;;;;1.10;1.10;;;;;;;27.02;52.46;99978.69;4945876;28;20254;-71
2023/05/21 11:14:34;;;;;;;1.05;1.05;;;;;;;27.63;52.07;99968.19;4892199;29;20416;-71
2023/05/21 11:17:03;;;;;;;1.00;1.00;;;;;;;27.10;50.30;99993.31;4898962;29;20695;-70
2023/05/21 11:19:38;;;;;;;1.02;1.02;;;;;;;27.69;47.90;99974.94;4932187;29;20294;-71
2023/05/21 11:22:09;;;;;;;1.10;1.10;;;;;;;27.52;49.21;99974.13;4933761;29;20221;-69
2023/05/21 11:24:40;;;;;;;0.90;0.90;;;;;;;27.51;50.01;99974.19;4933990;29;20230;-69
2023/05/21 11:27:07;;;;;;;1.13;1.13;;;;;;;27.37;49.38;99966.09;4941638;28;20224;-71
2023/05/21 11:29:42;;;;;;;1.42;1.42;;;;;;;27.52;49.61;99951.94;4930550;28;20207;-71